DLH404 EDDF-KJFK
Flight info
| Callsign | DLH404 |
|---|---|
| Flight time | N/A |
| Altitude | 36000 |
| Route | OBOKA5G/25C OBOKA Z29 TORNU DCT BATAK DCT GALSO Q63 ERING L179 UGBET Q60 OKSAW/N0470F380 DCT BIBPE DCT FELCA DCT FADZU DCT OFSOX DCT SLANY DCT TOBOR/M082F390 DCT 53N020W 53N030W 5230N04000W 50N050W DCT ELSIR/N0461F400 N402C ALLEX DCT ENE PARCH4 |
| Aircraft | A333/H-SDE3GHIJ2J3J5M1RVWXY/LB2D1 |
Departure
| Time | 2026-05-06 16:22 |
|---|---|
| Airport | Frankfurt Main Airport (EDDF) |
Arrival
| Time | N/A |
|---|---|
| Airport | John F. Kennedy International Airport (KJFK) |
| Time | Latitude | Longitude | Altitude | Speed | Heading |
|---|---|---|---|---|---|
| 2026-05-06 15:43 | 50.04595 | 8.57052 | 361 ft | 0 kts | 59° |
| 2026-05-06 15:47 | 50.04594 | 8.57051 | 361 ft | 0 kts | 59° |
| 2026-05-06 16:01 | 50.04594 | 8.57050 | 361 ft | 0 kts | 59° |
| 2026-05-06 16:09 | 50.04582 | 8.57019 | 367 ft | 4 kts | 58° |
| 2026-05-06 16:09 | 50.04569 | 8.56982 | 366 ft | 4 kts | 76° |
| 2026-05-06 16:09 | 50.04569 | 8.56947 | 363 ft | 4 kts | 106° |
| 2026-05-06 16:10 | 50.04580 | 8.56914 | 368 ft | 4 kts | 154° |
| 2026-05-06 16:10 | 50.04604 | 8.56910 | 368 ft | 3 kts | 193° |
| 2026-05-06 16:10 | 50.04591 | 8.56905 | 366 ft | 4 kts | 192° |
| 2026-05-06 16:10 | 50.04565 | 8.56896 | 365 ft | 4 kts | 194° |
| 2026-05-06 16:11 | 50.04552 | 8.56890 | 368 ft | 1 kts | 194° |
| 2026-05-06 16:13 | 50.04543 | 8.56887 | 368 ft | 3 kts | 195° |
| 2026-05-06 16:14 | 50.04509 | 8.56874 | 364 ft | 8 kts | 193° |
| 2026-05-06 16:14 | 50.04442 | 8.56853 | 369 ft | 11 kts | 190° |
| 2026-05-06 16:14 | 50.04365 | 8.56832 | 368 ft | 11 kts | 191° |
| 2026-05-06 16:14 | 50.04294 | 8.56839 | 366 ft | 10 kts | 148° |
| 2026-05-06 16:15 | 50.04283 | 8.56927 | 367 ft | 10 kts | 71° |
| 2026-05-06 16:15 | 50.04307 | 8.57035 | 367 ft | 12 kts | 70° |
| 2026-05-06 16:15 | 50.04337 | 8.57160 | 369 ft | 14 kts | 69° |
| 2026-05-06 16:15 | 50.04374 | 8.57315 | 370 ft | 17 kts | 70° |
| 2026-05-06 16:16 | 50.04417 | 8.57497 | 370 ft | 19 kts | 70° |
| 2026-05-06 16:16 | 50.04461 | 8.57678 | 373 ft | 17 kts | 69° |
| 2026-05-06 16:16 | 50.04503 | 8.57856 | 375 ft | 18 kts | 69° |
| 2026-05-06 16:16 | 50.04547 | 8.58037 | 372 ft | 18 kts | 70° |
| 2026-05-06 16:17 | 50.04591 | 8.58222 | 374 ft | 17 kts | 70° |
| 2026-05-06 16:17 | 50.04629 | 8.58381 | 377 ft | 15 kts | 69° |
| 2026-05-06 16:17 | 50.04651 | 8.58532 | 376 ft | 13 kts | 110° |
| 2026-05-06 16:17 | 50.04579 | 8.58595 | 379 ft | 12 kts | 158° |
| 2026-05-06 16:18 | 50.04508 | 8.58618 | 377 ft | 9 kts | 201° |
| 2026-05-06 16:18 | 50.04477 | 8.58545 | 377 ft | 8 kts | 256° |
| 2026-05-06 16:18 | 50.04473 | 8.58525 | 378 ft | 1 kts | 251° |
| 2026-05-06 16:18 | 50.04471 | 8.58515 | 379 ft | 1 kts | 250° |
| 2026-05-06 16:19 | 50.04470 | 8.58514 | 379 ft | 0 kts | 250° |
| 2026-05-06 16:20 | 50.04437 | 8.58375 | 375 ft | 38 kts | 249° |
| 2026-05-06 16:21 | 50.04278 | 8.57714 | 370 ft | 93 kts | 250° |
| 2026-05-06 16:21 | 50.03992 | 8.56516 | 361 ft | 143 kts | 250° |
| 2026-05-06 16:21 | 50.03597 | 8.54856 | 460 ft | 181 kts | 252° |
| 2026-05-06 16:21 | 50.03163 | 8.52854 | 770 ft | 209 kts | 253° |
| 2026-05-06 16:22 | 50.02724 | 8.50583 | 1100 ft | 230 kts | 262° |
| 2026-05-06 16:22 | 50.02735 | 8.48016 | 1552 ft | 242 kts | 276° |
| 2026-05-06 16:22 | 50.02908 | 8.45415 | 2364 ft | 237 kts | 272° |
| 2026-05-06 16:22 | 50.02811 | 8.42893 | 3180 ft | 236 kts | 262° |
| 2026-05-06 16:23 | 50.02551 | 8.40333 | 3692 ft | 244 kts | 259° |
| 2026-05-06 16:23 | 50.02234 | 8.37647 | 4248 ft | 251 kts | 258° |
| 2026-05-06 16:23 | 50.01916 | 8.35006 | 4798 ft | 253 kts | 258° |
| 2026-05-06 16:23 | 50.01589 | 8.32312 | 5009 ft | 255 kts | 258° |
| 2026-05-06 16:24 | 50.01329 | 8.29585 | 5019 ft | 256 kts | 267° |
| 2026-05-06 16:24 | 50.01594 | 8.26855 | 5109 ft | 257 kts | 286° |
| 2026-05-06 16:24 | 50.02281 | 8.24264 | 5591 ft | 262 kts | 292° |
| 2026-05-06 16:24 | 50.03046 | 8.21659 | 6359 ft | 267 kts | 291° |
| 2026-05-06 16:25 | 50.03817 | 8.19030 | 7153 ft | 267 kts | 292° |
| 2026-05-06 16:25 | 50.04593 | 8.16395 | 7908 ft | 270 kts | 291° |
| 2026-05-06 16:25 | 50.05379 | 8.13722 | 8649 ft | 272 kts | 292° |
| 2026-05-06 16:25 | 50.06349 | 8.11162 | 9358 ft | 278 kts | 302° |
| 2026-05-06 16:26 | 50.07534 | 8.08761 | 9992 ft | 284 kts | 306° |
| 2026-05-06 16:26 | 50.08810 | 8.06297 | 10294 ft | 301 kts | 307° |
| 2026-05-06 16:26 | 50.10162 | 8.03698 | 10595 ft | 317 kts | 306° |
| 2026-05-06 16:26 | 50.11583 | 8.00955 | 10843 ft | 334 kts | 306° |
| 2026-05-06 16:27 | 50.13066 | 7.98079 | 11166 ft | 347 kts | 307° |
| 2026-05-06 16:27 | 50.14603 | 7.95102 | 11635 ft | 356 kts | 307° |
| 2026-05-06 16:27 | 50.16162 | 7.92070 | 12270 ft | 360 kts | 307° |
| 2026-05-06 16:27 | 50.17732 | 7.89012 | 12922 ft | 363 kts | 307° |
| 2026-05-06 16:28 | 50.19314 | 7.85917 | 13612 ft | 365 kts | 306° |
| 2026-05-06 16:28 | 50.20902 | 7.82806 | 14167 ft | 369 kts | 306° |
| 2026-05-06 16:28 | 50.22511 | 7.79652 | 14692 ft | 372 kts | 307° |
| 2026-05-06 16:28 | 50.24145 | 7.76496 | 15270 ft | 376 kts | 309° |
| 2026-05-06 16:29 | 50.26083 | 7.73716 | 15812 ft | 383 kts | 324° |
| 2026-05-06 16:29 | 50.28439 | 7.71716 | 16344 ft | 389 kts | 333° |
| 2026-05-06 16:29 | 50.30928 | 7.69993 | 16867 ft | 393 kts | 334° |
| 2026-05-06 16:29 | 50.33451 | 7.68298 | 17389 ft | 396 kts | 334° |
| 2026-05-06 16:30 | 50.35995 | 7.66582 | 17912 ft | 400 kts | 334° |
| 2026-05-06 16:30 | 50.37690 | 7.65432 | 18257 ft | 402 kts | 334° |
| 2026-05-06 16:30 | 50.41140 | 7.63076 | 18897 ft | 406 kts | 333° |
| 2026-05-06 16:30 | 50.43741 | 7.61292 | 19362 ft | 409 kts | 333° |
| 2026-05-06 16:31 | 50.46357 | 7.59494 | 19847 ft | 411 kts | 333° |
| 2026-05-06 16:31 | 50.48981 | 7.57687 | 20314 ft | 413 kts | 333° |
| 2026-05-06 16:31 | 50.51621 | 7.55865 | 20763 ft | 415 kts | 333° |
| 2026-05-06 16:31 | 50.54270 | 7.54029 | 21232 ft | 417 kts | 332° |
| 2026-05-06 16:32 | 50.56830 | 7.51890 | 21662 ft | 417 kts | 325° |
| 2026-05-06 16:32 | 50.59288 | 7.49457 | 22073 ft | 418 kts | 323° |
| 2026-05-06 16:32 | 50.61732 | 7.46953 | 22504 ft | 420 kts | 323° |
| 2026-05-06 16:32 | 50.64188 | 7.44425 | 22873 ft | 424 kts | 324° |
| 2026-05-06 16:33 | 50.66675 | 7.41865 | 23159 ft | 430 kts | 325° |
| 2026-05-06 16:33 | 50.69189 | 7.39280 | 23527 ft | 432 kts | 325° |
| 2026-05-06 16:33 | 50.71687 | 7.36618 | 23874 ft | 433 kts | 321° |
| 2026-05-06 16:34 | 50.75768 | 7.29712 | 24565 ft | 432 kts | 300° |
| 2026-05-06 16:34 | 50.77300 | 7.25618 | 24902 ft | 434 kts | 297° |
| 2026-05-06 16:34 | 50.78720 | 7.21406 | 25235 ft | 435 kts | 295° |
| 2026-05-06 16:34 | 50.80088 | 7.17123 | 25568 ft | 437 kts | 295° |
| 2026-05-06 16:35 | 50.81441 | 7.12808 | 25881 ft | 440 kts | 295° |
| 2026-05-06 16:35 | 50.82805 | 7.08466 | 26212 ft | 441 kts | 295° |
| 2026-05-06 16:35 | 50.84178 | 7.04129 | 26532 ft | 444 kts | 295° |
| 2026-05-06 16:35 | 50.85578 | 6.99737 | 26764 ft | 448 kts | 295° |
| 2026-05-06 16:36 | 50.86993 | 6.95330 | 27098 ft | 449 kts | 295° |
| 2026-05-06 16:36 | 50.88411 | 6.90921 | 27402 ft | 452 kts | 296° |
| 2026-05-06 16:36 | 50.89839 | 6.86482 | 27706 ft | 453 kts | 295° |
| 2026-05-06 16:36 | 50.91274 | 6.82020 | 28000 ft | 455 kts | 296° |
| 2026-05-06 16:37 | 50.92713 | 6.77533 | 28298 ft | 457 kts | 296° |
| 2026-05-06 16:37 | 50.94146 | 6.73057 | 28586 ft | 459 kts | 296° |
| 2026-05-06 16:37 | 50.95590 | 6.68534 | 28890 ft | 461 kts | 296° |
| 2026-05-06 16:37 | 50.97041 | 6.63983 | 29164 ft | 463 kts | 296° |
| 2026-05-06 16:38 | 50.98477 | 6.59469 | 29441 ft | 466 kts | 295° |
| 2026-05-06 16:38 | 50.99945 | 6.54846 | 29624 ft | 471 kts | 295° |
| 2026-05-06 16:38 | 51.01416 | 6.50201 | 29917 ft | 472 kts | 296° |
| 2026-05-06 16:38 | 51.02893 | 6.45531 | 30165 ft | 474 kts | 295° |
| 2026-05-06 16:39 | 51.04372 | 6.40844 | 30437 ft | 475 kts | 295° |